Time;durP1;ratioP1;P1;durP2;ratioP2;P2;SDS_P1;SDS_P2;PMS_P1;PMS_P2;Temp;Humidity;BMP_temperature;BMP_pressure;BME280_temperature;BME280_humidity;BME280_pressure;Samples;Min_cycle;Max_cycle;Signal;HPM_P1;HPM_P2
2021/08/09 00:01:42;;;;;;;;;;;;;;;19.71;89.34;100178.33;1683019;83;21831;-91
2021/08/09 00:04:07;;;;;;;;;;;;;;;19.69;89.36;100169.70;1674106;84;20258;-92
2021/08/09 00:06:33;;;;;;;;;;;;;;;19.68;89.18;100168.05;1680207;84;20138;-91
2021/08/09 00:08:59;;;;;;;;;;;;;;;19.59;89.53;100170.67;1681275;84;20141;-91
2021/08/09 00:11:25;;;;;;;;;;;;;;;19.58;90.03;100170.39;1681284;84;20202;-89
2021/08/09 00:13:50;;;;;;;;;;;;;;;19.57;90.13;100175.44;1680511;84;21072;-91
2021/08/09 00:16:16;;;;;;;;;;;;;;;19.55;90.55;100172.16;1677828;83;20378;-90
2021/08/09 00:18:45;;;;;;;;;;;;;;;19.58;90.43;100174.41;1685192;84;20143;-92
2021/08/09 00:21:09;;;;;;;;;;;;;;;19.57;90.38;100183.48;1679903;84;20122;-90
2021/08/09 00:23:34;;;;;;;;;;;;;;;19.52;90.23;100188.14;1677375;83;20235;-91
2021/08/09 00:26:00;;;;;;;;;;;;;;;19.56;90.01;100189.89;1677917;84;21096;-91
2021/08/09 00:28:29;;;;;;;;;;;;;;;19.60;89.65;100199.12;1680188;83;20169;-90
2021/08/09 00:30:54;;;;;;;;;;;;;;;19.65;89.29;100208.66;1681922;83;20207;-90
2021/08/09 00:33:20;;;;;;;;;;;;;;;19.63;89.05;100206.73;1678704;84;20158;-90
2021/08/09 00:35:47;;;;;;;;;;;;;;;19.59;88.99;100202.83;1678234;84;20299;-90
2021/08/09 00:38:12;;;;;;;;;;;;;;;19.55;88.80;100211.00;1679782;84;21422;-90
2021/08/09 00:40:38;;;;;;;;;;;;;;;19.57;88.68;100218.30;1679922;84;20230;-90
2021/08/09 00:43:04;;;;;;;;;;;;;;;19.54;88.70;100218.72;1671470;84;20196;-91
2021/08/09 00:45:29;;;;;;;;;;;;;;;19.56;88.54;100219.35;1680541;84;20147;-91
2021/08/09 00:47:55;;;;;;;;;;;;;;;19.55;88.46;100216.36;1682863;83;20167;-91
2021/08/09 00:50:21;;;;;;;;;;;;;;;19.56;88.34;100218.02;1676660;84;21115;-91
2021/08/09 00:52:46;;;;;;;;;;;;;;;19.51;88.73;100200.40;1673959;84;20186;-90
2021/08/09 00:55:12;;;;;;;;;;;;;;;19.49;88.81;100206.50;1678412;85;20142;-90
2021/08/09 00:57:38;;;;;;;;;;;;;;;19.51;88.73;100208.44;1670685;85;20126;-89
2021/08/09 01:00:04;;;;;;;;;;;;;;;19.50;88.67;100208.16;1674141;84;20799;-91
2021/08/09 01:02:30;;;;;;;;;;;;;;;19.50;88.53;100195.58;1672976;85;21038;-89
2021/08/09 01:04:59;;;;;;;;;;;;;;;19.53;88.62;100180.94;1676205;84;20517;-90
2021/08/09 01:07:25;;;;;;;;;;;;;;;19.55;88.48;100178.86;1677935;85;20099;-90
2021/08/09 01:09:58;;;;;;;;;;;;;;;19.57;88.73;100182.13;1681421;84;20242;-90
2021/08/09 01:12:30;;;;;;;;;;;;;;;19.57;88.62;100178.12;1673206;84;20465;-91
2021/08/09 01:15:16;;;;;;;;;;;;;;;19.55;88.43;100180.20;1677266;84;21166;-89
2021/08/09 01:17:45;;;;;;;;;;;;;;;19.56;88.51;100176.50;1678474;85;20587;-90
2021/08/09 01:20:41;;;;;;;;;;;;;;;19.53;88.65;100175.59;1673619;84;20192;-90
2021/08/09 01:23:34;;;;;;;;;;;;;;;19.55;88.55;100176.99;1675120;83;20199;-91
2021/08/09 01:26:10;;;;;;;;;;;;;;;19.53;88.68;100174.25;1675619;83;20442;-91
2021/08/09 01:28:35;;;;;;;;;;;;;;;19.54;88.54;100170.51;1676879;85;21737;-90
2021/08/09 01:31:01;;;;;;;;;;;;;;;19.58;88.67;100165.03;1678056;84;20138;-91
2021/08/09 01:33:27;;;;;;;;;;;;;;;19.62;88.74;100172.11;1653173;85;20143;-90
2021/08/09 01:35:54;;;;;;;;;;;;;;;19.63;88.69;100163.86;1678412;84;20204;-91
2021/08/09 01:38:21;;;;;;;;;;;;;;;19.63;88.61;100150.47;1674084;84;20715;-91
2021/08/09 01:40:46;;;;;;;;;;;;;;;19.66;88.52;100139.32;1674090;84;21900;-90
2021/08/09 01:43:12;;;;;;;;;;;;;;;19.67;88.66;100143.66;1675990;85;20149;-90
2021/08/09 01:45:39;;;;;;;;;;;;;;;19.69;88.44;100147.45;1678726;84;20137;-90
2021/08/09 01:48:05;;;;;;;;;;;;;;;19.69;87.86;100163.00;1677143;84;20183;-91
2021/08/09 01:50:30;;;;;;;;;;;;;;;19.69;87.73;100163.00;1660228;85;20735;-91
2021/08/09 01:52:56;;;;;;;;;;;;;;;19.68;87.72;100172.59;1638953;85;21028;-91
2021/08/09 01:55:22;;;;;;;;;;;;;;;19.65;88.22;100177.05;1647066;85;20147;-90
2021/08/09 01:57:49;;;;;;;;;;;;;;;19.64;88.72;100179.41;1630315;84;20213;-90
2021/08/09 02:00:16;;;;;;;;;;;;;;;19.65;88.90;100182.41;1642204;85;20196;-91
2021/08/09 02:02:41;;;;;;;;;;;;;;;19.57;88.65;100191.52;1644374;85;20293;-91
2021/08/09 02:05:12;;;;;;;;;;;;;;;19.44;89.23;100186.24;1649056;85;21827;-91
2021/08/09 02:07:42;;;;;;;;;;;;;;;19.44;89.31;100175.53;1647133;85;20138;-90
2021/08/09 02:10:09;;;;;;;;;;;;;;;19.46;89.36;100186.84;1653314;85;20239;-91
2021/08/09 02:12:37;;;;;;;;;;;;;;;19.28;89.95;100191.05;1618163;85;20479;-90
2021/08/09 02:15:03;;;;;;;;;;;;;;;19.27;90.26;100182.70;1636994;85;20191;-91
2021/08/09 02:17:36;;;;;;;;;;;;;;;19.32;89.86;100188.23;1638712;85;21092;-90
2021/08/09 02:20:05;;;;;;;;;;;;;;;19.27;89.82;100204.13;1644952;85;20195;-90
2021/08/09 02:22:43;;;;;;;;;;;;;;;19.38;89.67;100199.95;1641554;85;20144;-91
2021/08/09 02:25:14;;;;;;;;;;;;;;;19.46;89.17;100208.27;1646400;84;20319;-90
2021/08/09 02:27:47;;;;;;;;;;;;;;;19.52;88.69;100207.41;1640300;85;20223;-91
2021/08/09 02:30:16;;;;;;;;;;;;;;;19.54;88.24;100203.50;1651261;85;22377;-91
2021/08/09 02:32:42;;;;;;;;;;;;;;;19.58;88.38;100201.20;1644656;85;20201;-91
2021/08/09 02:35:08;;;;;;;;;;;;;;;19.50;88.44;100204.14;1642861;85;20155;-91
2021/08/09 02:37:33;;;;;;;;;;;;;;;19.52;88.69;100194.02;1627449;85;20503;-91
2021/08/09 02:39:59;;;;;;;;;;;;;;;19.56;88.57;100197.92;1649099;85;20219;-90
2021/08/09 02:42:24;;;;;;;;;;;;;;;19.63;88.61;100211.27;1647888;85;21035;-91
2021/08/09 02:44:50;;;;;;;;;;;;;;;19.61;88.49;100216.84;1639797;85;20607;-90
2021/08/09 02:47:16;;;;;;;;;;;;;;;19.55;89.03;100220.37;1641571;85;20230;-90
2021/08/09 02:49:46;;;;;;;;;;;;;;;19.55;89.48;100220.37;1652981;85;20680;-91
2021/08/09 02:52:10;;;;;;;;;;;;;;;19.65;88.97;100223.40;1676381;85;20150;-90
2021/08/09 02:54:35;;;;;;;;;;;;;;;19.66;89.01;100233.09;1656721;85;21770;-90
2021/08/09 02:57:01;;;;;;;;;;;;;;;19.57;89.45;100237.05;1676332;85;20477;-90
2021/08/09 02:59:27;;;;;;;;;;;;;;;19.55;89.95;100236.45;1676594;83;20159;-90
2021/08/09 03:01:52;;;;;;;;;;;;;;;19.59;90.13;100243.00;1676532;85;20159;-90
2021/08/09 03:04:18;;;;;;;;;;;;;;;19.52;89.78;100250.27;1674351;84;20168;-90
2021/08/09 03:06:44;;;;;;;;;;;;;;;19.45;90.18;100254.81;1674653;84;21072;-91
2021/08/09 03:09:10;;;;;;;;;;;;;;;19.47;90.03;100251.43;1676283;84;20127;-90
2021/08/09 03:11:35;;;;;;;;;;;;;;;19.43;90.19;100250.20;1673593;85;20143;-89
2021/08/09 03:14:02;;;;;;;;;;;;;;;19.36;90.35;100260.42;1677834;83;20170;-90
2021/08/09 03:16:28;;;;;;;;;;;;;;;19.29;90.78;100260.95;1674659;83;20232;-91
2021/08/09 03:18:53;;;;;;;;;;;;;;;19.31;91.08;100262.08;1673025;84;21167;-91
2021/08/09 03:21:19;;;;;;;;;;;;;;;19.23;91.60;100281.06;1675541;85;20244;-90
2021/08/09 03:23:44;;;;;;;;;;;;;;;19.28;91.21;100282.58;1676859;84;20204;-90
2021/08/09 03:26:10;;;;;;;;;;;;;;;19.25;91.41;100283.00;1678039;84;20159;-90
2021/08/09 03:28:36;;;;;;;;;;;;;;;19.25;91.50;100282.50;1675894;83;20152;-91
2021/08/09 03:31:04;;;;;;;;;;;;;;;19.26;91.61;100290.01;1675335;84;21974;-90
2021/08/09 03:33:30;;;;;;;;;;;;;;;19.23;91.69;100293.91;1672414;84;20484;-90
2021/08/09 03:35:56;;;;;;;;;;;;;;;19.25;91.58;100295.89;1675969;85;20234;-90
2021/08/09 03:38:21;;;;;;;;;;;;;;;19.30;91.52;100298.75;1676470;84;20631;-91
2021/08/09 03:40:47;;;;;;;;;;;;;;;19.29;91.48;100307.80;1676649;85;20939;-89
2021/08/09 03:43:12;;;;;;;;;;;;;;;19.26;91.72;100309.56;1675660;85;21083;-91
2021/08/09 03:45:38;;;;;;;;;;;;;;;19.23;92.06;100316.67;1672413;85;20155;-90
2021/08/09 03:48:06;;;;;;;;;;;;;;;19.07;92.94;100305.09;1674400;85;20139;-90
2021/08/09 03:50:31;;;;;;;;;;;;;;;19.05;93.21;100307.12;1666354;85;20217;-91
2021/08/09 03:52:57;;;;;;;;;;;;;;;19.11;93.10;100308.97;1644699;86;20145;-91
2021/08/09 03:55:23;;;;;;;;;;;;;;;19.13;93.28;100310.95;1647327;86;21088;-90
2021/08/09 03:57:48;;;;;;;;;;;;;;;19.19;92.68;100304.76;1647529;86;20510;-90
2021/08/09 04:00:14;;;;;;;;;;;;;;;19.28;92.37;100300.83;1645976;85;20148;-90
2021/08/09 04:02:40;;;;;;;;;;;;;;;19.26;92.40;100301.53;1649104;86;20445;-90
2021/08/09 04:05:08;;;;;;;;;;;;;;;19.26;92.11;100297.52;1646602;85;20145;-90
2021/08/09 04:07:33;;;;;;;;;;;;;;;19.25;91.89;100297.73;1642016;86;21311;-91
2021/08/09 04:09:59;;;;;;;;;;;;;;;19.13;92.33;100299.71;1648952;86;20148;-91
2021/08/09 04:12:24;;;;;;;;;;;;;;;19.12;92.17;100298.05;1643991;85;20175;-90
2021/08/09 04:14:50;;;;;;;;;;;;;;;18.88;93.13;100302.22;1644280;86;20128;-89
2021/08/09 04:17:15;;;;;;;;;;;;;;;18.89;93.35;100305.19;1650190;86;20604;-91
2021/08/09 04:19:41;;;;;;;;;;;;;;;18.94;93.01;100305.41;1645529;85;21894;-91
2021/08/09 04:22:07;;;;;;;;;;;;;;;18.90;93.17;100301.49;1645547;86;20343;-91
2021/08/09 04:24:32;;;;;;;;;;;;;;;18.95;92.88;100301.69;1641935;86;20499;-90
2021/08/09 04:26:58;;;;;;;;;;;;;;;18.99;92.83;100303.45;1643366;85;20137;-91
2021/08/09 04:29:23;;;;;;;;;;;;;;;19.00;92.93;100309.94;1648791;85;20120;-89
2021/08/09 04:31:49;;;;;;;;;;;;;;;19.01;92.64;100307.55;1651699;86;21068;-90
2021/08/09 04:34:14;;;;;;;;;;;;;;;19.06;92.16;100315.48;1650366;85;20140;-89
2021/08/09 04:36:40;;;;;;;;;;;;;;;19.13;91.40;100314.96;1655390;85;20140;-89
2021/08/09 04:39:06;;;;;;;;;;;;;;;19.24;91.31;100308.96;1653840;85;20098;-89
2021/08/09 04:41:31;;;;;;;;;;;;;;;19.23;90.83;100315.34;1654003;85;20128;-90
2021/08/09 04:43:57;;;;;;;;;;;;;;;19.04;91.52;100311.67;1647384;86;21862;-91
2021/08/09 04:46:22;;;;;;;;;;;;;;;19.07;91.80;100310.44;1644390;85;20156;-91
2021/08/09 04:48:48;;;;;;;;;;;;;;;19.00;91.91;100309.94;1639750;86;20677;-91
2021/08/09 04:51:14;;;;;;;;;;;;;;;18.96;91.99;100310.03;1661465;84;20230;-91
2021/08/09 04:53:39;;;;;;;;;;;;;;;18.95;92.00;100310.23;1673278;84;20190;-91
2021/08/09 04:56:05;;;;;;;;;;;;;;;18.93;92.03;100311.78;1674992;84;21017;-91
2021/08/09 04:58:30;;;;;;;;;;;;;;;19.07;91.38;100309.10;1674643;83;20177;-91
2021/08/09 05:00:56;;;;;;;;;;;;;;;19.10;91.17;100316.72;1675527;85;20163;-90
2021/08/09 05:03:22;;;;;;;;;;;;;;;19.17;90.99;100314.83;1672207;84;20222;-90
2021/08/09 05:05:48;;;;;;;;;;;;;;;19.22;90.83;100319.56;1676518;84;20193;-90
2021/08/09 05:08:13;;;;;;;;;;;;;;;19.25;90.59;100319.98;1673357;84;21100;-90
2021/08/09 05:10:39;;;;;;;;;;;;;;;19.26;90.77;100321.61;1676218;84;20667;-91
2021/08/09 05:13:05;;;;;;;;;;;;;;;19.31;90.49;100323.66;1673370;84;20180;-91
2021/08/09 05:15:32;;;;;;;;;;;;;;;19.38;90.47;100322.62;1675495;85;20605;-91
2021/08/09 05:17:58;;;;;;;;;;;;;;;19.37;89.81;100320.99;1673824;84;20184;-90
2021/08/09 05:20:23;;;;;;;;;;;;;;;19.46;89.64;100328.79;1676729;84;21122;-91
2021/08/09 05:22:49;;;;;;;;;;;;;;;19.41;89.47;100329.42;1674376;85;20257;-91
2021/08/09 05:25:15;;;;;;;;;;;;;;;19.37;89.77;100326.34;1681350;84;20269;-90
2021/08/09 05:27:40;;;;;;;;;;;;;;;19.43;89.62;100334.56;1680627;84;20135;-91
2021/08/09 05:30:07;;;;;;;;;;;;;;;19.60;89.24;100338.95;1679684;84;20166;-91
2021/08/09 05:32:33;;;;;;;;;;;;;;;19.70;88.50;100336.13;1677823;84;21046;-90
2021/08/09 05:34:58;;;;;;;;;;;;;;;19.64;87.84;100343.67;1674499;84;20126;-89
2021/08/09 05:37:24;;;;;;;;;;;;;;;19.55;88.15;100344.94;1678394;84;20178;-91
2021/08/09 05:39:49;;;;;;;;;;;;;;;19.65;87.91;100341.28;1678513;83;20471;-91
2021/08/09 05:42:15;;;;;;;;;;;;;;;19.67;87.13;100341.06;1677041;83;20147;-90
2021/08/09 05:44:40;;;;;;;;;;;;;;;19.54;87.36;100348.64;1677820;83;21941;-90
2021/08/09 05:47:06;;;;;;;;;;;;;;;19.71;86.72;100346.32;1676439;83;20145;-91
2021/08/09 05:49:32;;;;;;;;;;;;;;;19.80;86.55;100340.25;1676865;84;21189;-90
2021/08/09 05:51:57;;;;;;;;;;;;;;;19.83;85.93;100339.83;1681859;84;20150;-91
2021/08/09 05:54:24;;;;;;;;;;;;;;;19.79;86.07;100338.59;1674136;83;20218;-89
2021/08/09 05:56:50;;;;;;;;;;;;;;;19.83;85.52;100347.87;1674110;83;21174;-91
2021/08/09 05:59:15;;;;;;;;;;;;;;;19.71;85.10;100357.85;1675854;84;20718;-91
2021/08/09 06:01:41;;;;;;;;;;;;;;;19.82;85.06;100344.34;1674188;85;20139;-91
2021/08/09 06:04:06;;;;;;;;;;;;;;;19.91;85.05;100347.62;1675748;84;20676;-90
2021/08/09 06:06:35;;;;;;;;;;;;;;;19.96;85.07;100348.31;1672028;84;20141;-90
2021/08/09 06:09:01;;;;;;;;;;;;;;;20.15;84.43;100347.91;1674736;84;21081;-91
2021/08/09 06:11:26;;;;;;;;;;;;;;;20.19;83.11;100351.29;1675131;84;20601;-90
2021/08/09 06:13:54;;;;;;;;;;;;;;;20.15;82.97;100362.66;1679067;84;20731;-90
2021/08/09 06:16:25;;;;;;;;;;;;;;;20.30;82.65;100353.81;1677225;84;20206;-89
2021/08/09 06:18:50;;;;;;;;;;;;;;;20.40;81.95;100358.20;1679180;85;20258;-91
2021/08/09 06:21:16;;;;;;;;;;;;;;;20.53;81.13;100359.14;1675663;84;21180;-91
2021/08/09 06:23:41;;;;;;;;;;;;;;;20.57;80.68;100364.36;1675612;84;20150;-90
2021/08/09 06:26:07;;;;;;;;;;;;;;;20.59;79.95;100362.30;1680926;84;20135;-90
2021/08/09 06:28:34;;;;;;;;;;;;;;;20.66;80.13;100368.45;1676604;85;20159;-90
2021/08/09 06:30:59;;;;;;;;;;;;;;;20.73;80.10;100369.25;1676283;85;20513;-90
2021/08/09 06:33:25;;;;;;;;;;;;;;;20.76;79.35;100367.47;1677208;85;21009;-90
2021/08/09 06:35:50;;;;;;;;;;;;;;;20.86;78.51;100370.19;1674023;84;20626;-90
2021/08/09 06:38:16;;;;;;;;;;;;;;;20.90;77.60;100366.03;1678719;83;20162;-90
2021/08/09 06:40:43;;;;;;;;;;;;;;;21.00;77.55;100366.34;1682613;83;20192;-90
2021/08/09 06:43:08;;;;;;;;;;;;;;;21.16;77.12;100372.51;1681616;84;20127;-90
2021/08/09 06:45:34;;;;;;;;;;;;;;;21.27;76.82;100372.30;1674591;85;21152;-90
2021/08/09 06:47:59;;;;;;;;;;;;;;;21.27;75.64;100376.34;1678025;85;20786;-90
2021/08/09 06:50:26;;;;;;;;;;;;;;;21.36;75.78;100380.88;1676565;85;20189;-90
2021/08/09 06:52:52;;;;;;;;;;;;;;;21.40;75.81;100376.72;1674204;84;20165;-90
2021/08/09 06:55:17;;;;;;;;;;;;;;;21.33;74.64;100375.95;1679503;84;20117;-90
2021/08/09 06:57:43;;;;;;;;;;;;;;;21.44;74.29;100383.30;1676363;84;21100;-91
2021/08/09 07:00:10;;;;;;;;;;;;;;;21.53;74.20;100385.72;1676314;84;20180;-90
2021/08/09 07:02:37;;;;;;;;;;;;;;;21.55;73.16;100380.94;1677309;84;20164;-89
2021/08/09 07:05:03;;;;;;;;;;;;;;;21.49;72.47;100382.66;1679191;84;20185;-90
2021/08/09 07:07:29;;;;;;;;;;;;;;;21.55;72.67;100387.65;1678871;84;20211;-90
2021/08/09 07:09:54;;;;;;;;;;;;;;;21.66;73.05;100382.90;1679113;84;21081;-89
2021/08/09 07:12:20;;;;;;;;;;;;;;;21.74;72.07;100382.59;1679645;84;20144;-90
2021/08/09 07:14:46;;;;;;;;;;;;;;;21.75;71.95;100390.97;1679500;83;20171;-90
2021/08/09 07:17:11;;;;;;;;;;;;;;;21.83;71.02;100392.00;1684068;83;20198;-90
2021/08/09 07:19:37;;;;;;;;;;;;;;;21.95;71.63;100391.23;1677464;84;20190;-90
2021/08/09 07:22:03;;;;;;;;;;;;;;;21.98;71.77;100392.94;1676941;83;22271;-90
2021/08/09 07:24:29;;;;;;;;;;;;;;;22.10;71.45;100377.41;1679260;84;20189;-90
2021/08/09 07:26:54;;;;;;;;;;;;;;;22.32;71.33;100380.45;1683043;84;20159;-91
2021/08/09 07:29:20;;;;;;;;;;;;;;;22.33;70.84;100388.83;1677893;84;20223;-91
2021/08/09 07:31:45;;;;;;;;;;;;;;;22.28;68.59;100390.83;1673667;84;20859;-91
2021/08/09 07:34:13;;;;;;;;;;;;;;;22.27;68.65;100399.13;1685210;83;21847;-90
2021/08/09 07:36:39;;;;;;;;;;;;;;;22.24;69.09;100397.16;1685181;83;20154;-90
2021/08/09 07:39:04;;;;;;;;;;;;;;;22.37;69.23;100394.03;1680527;83;20904;-91
2021/08/09 07:41:30;;;;;;;;;;;;;;;22.43;69.08;100391.77;1677110;84;20157;-91
2021/08/09 07:43:55;;;;;;;;;;;;;;;22.59;68.86;100396.52;1681664;84;21030;-89
2021/08/09 07:46:24;;;;;;;;;;;;;;;22.61;68.58;100398.98;1676801;83;21087;-90
2021/08/09 07:48:48;;;;;;;;;;;;;;;22.66;68.41;100394.25;1673669;84;20136;-90
2021/08/09 07:51:15;;;;;;;;;;;;;;;22.71;68.00;100395.18;1677069;84;21040;-90
2021/08/09 07:53:41;;;;;;;;;;;;;;;22.78;67.93;100392.41;1676363;85;20182;-90
2021/08/09 07:56:06;;;;;;;;;;;;;;;22.74;68.06;100396.60;1671466;84;20182;-90
2021/08/09 07:58:32;;;;;;;;;;;;;;;22.82;68.06;100390.88;1672860;84;21036;-89
2021/08/09 08:00:58;;;;;;;;;;;;;;;22.74;67.16;100404.14;1675174;85;20204;-91
2021/08/09 08:03:24;;;;;;;;;;;;;;;22.77;67.45;100397.48;1677174;84;20127;-90
2021/08/09 08:05:49;;;;;;;;;;;;;;;22.87;66.82;100397.75;1674471;84;20516;-91
2021/08/09 08:08:15;;;;;;;;;;;;;;;22.84;67.45;100399.56;1673630;85;20163;-90
2021/08/09 08:10:40;;;;;;;;;;;;;;;22.92;67.65;100393.83;1671087;83;21077;-90
2021/08/09 08:13:06;;;;;;;;;;;;;;;22.90;67.79;100406.72;1674454;85;20172;-90
2021/08/09 08:15:32;;;;;;;;;;;;;;;22.87;66.58;100396.41;1672585;85;20221;-90
2021/08/09 08:17:57;;;;;;;;;;;;;;;22.95;67.23;100401.45;1659317;85;20421;-91
2021/08/09 08:20:23;;;;;;;;;;;;;;;23.07;66.90;100409.55;1674352;84;20139;-90
2021/08/09 08:22:49;;;;;;;;;;;;;;;23.02;67.32;100401.33;1675115;84;21065;-90
2021/08/09 08:25:14;;;;;;;;;;;;;;;23.14;66.40;100403.27;1678301;85;20134;-89
2021/08/09 08:27:40;;;;;;;;;;;;;;;23.19;66.15;100408.23;1676399;84;20219;-90
2021/08/09 08:30:08;;;;;;;;;;;;;;;23.14;65.26;100408.66;1676541;85;20130;-90
2021/08/09 08:32:33;;;;;;;;;;;;;;;23.01;64.25;100410.98;1673532;84;20462;-90
2021/08/09 08:35:00;;;;;;;;;;;;;;;23.10;64.91;100415.02;1672198;84;21065;-89
2021/08/09 08:37:26;;;;;;;;;;;;;;;23.10;65.60;100413.66;1673842;84;20170;-89
2021/08/09 08:39:51;;;;;;;;;;;;;;;23.01;66.89;100415.03;1680675;84;20234;-90
2021/08/09 08:42:18;;;;;;;;;;;;;;;22.85;66.44;100428.11;1677921;85;20134;-89
2021/08/09 08:44:44;;;;;;;;;;;;;;;22.89;66.28;100423.92;1682845;83;20194;-90
2021/08/09 08:47:13;;;;;;;;;;;;;;;22.99;65.47;100436.00;1677238;83;21078;-90
2021/08/09 08:49:38;;;;;;;;;;;;;;;22.88;65.13;100433.03;1681843;85;20358;-90
2021/08/09 08:52:04;;;;;;;;;;;;;;;23.01;64.77;100439.27;1667781;85;20133;-89
2021/08/09 08:54:30;;;;;;;;;;;;;;;22.86;65.07;100441.88;1646614;85;20158;-89
2021/08/09 08:56:56;;;;;;;;;;;;;;;22.71;63.27;100448.22;1648130;85;20870;-90
2021/08/09 08:59:21;;;;;;;;;;;;;;;22.88;63.34;100443.81;1646468;85;21865;-90
2021/08/09 09:01:48;;;;;;;;;;;;;;;22.79;63.36;100449.23;1646582;85;20200;-90
2021/08/09 09:04:29;;;;;;;;;;;;;;;22.85;64.59;100456.39;1646385;86;20208;-90
2021/08/09 09:07:01;;;;;;;;;;;;;;;22.74;63.98;100447.75;1645725;86;20161;-90
2021/08/09 09:09:28;;;;;;;;;;;;;;;22.72;63.19;100455.25;1645788;85;20448;-91
2021/08/09 09:11:53;;;;;;;;;;;;;;;22.91;62.63;100450.08;1645433;86;21934;-90
2021/08/09 09:14:29;;;;;;;;;;;;;;;22.83;63.19;100454.45;1647170;85;20238;-89
2021/08/09 09:17:00;;;;;;;;;;;;;;;22.86;63.29;100454.00;1644930;86;20129;-90
2021/08/09 09:19:34;;;;;;;;;;;;;;;22.81;62.65;100457.91;1648509;85;21110;-90
2021/08/09 09:22:00;;;;;;;;;;;;;;;22.80;60.96;100462.99;1646793;85;20192;-90
2021/08/09 09:24:27;;;;;;;;;;;;;;;22.98;60.90;100469.36;1646519;86;21079;-89
2021/08/09 09:26:58;;;;;;;;;;;;;;;22.91;61.10;100471.63;1625787;86;20196;-90
2021/08/09 09:29:24;;;;;;;;;;;;;;;22.91;59.83;100474.85;1647275;85;20128;-90
2021/08/09 09:31:50;;;;;;;;;;;;;;;22.88;60.29;100461.31;1646710;85;20165;-90
2021/08/09 09:34:17;;;;;;;;;;;;;;;23.03;60.59;100466.81;1651010;85;20153;-89
2021/08/09 09:36:48;;;;;;;;;;;;;;;23.10;60.52;100474.28;1645731;86;21173;-90
2021/08/09 09:39:35;;;;;;;;;;;;;;;22.99;60.34;100479.90;1651379;85;20540;-90
2021/08/09 09:42:06;;;;;;;;;;;;;;;23.01;59.76;100470.24;1647106;85;20197;-90
2021/08/09 09:44:32;;;;;;;;;;;;;;;23.10;57.85;100475.62;1644253;86;20181;-90
2021/08/09 09:47:20;;;;;;;;;;;;;;;23.18;58.24;100478.00;1645565;85;20201;-89
2021/08/09 09:49:46;;;;;;;;;;;;;;;23.15;58.09;100470.38;1652703;85;21856;-90
2021/08/09 09:52:49;;;;;;;;;;;;;;;23.22;57.23;100464.34;1662351;83;20191;-90
2021/08/09 09:55:13;;;;;;;;;;;;;;;23.31;54.86;100481.00;1677036;84;20131;-90
2021/08/09 09:57:39;;;;;;;;;;;;;;;23.32;56.53;100473.73;1680209;84;20213;-91
2021/08/09 10:00:11;;;;;;;;;;;;;;;23.41;56.68;100481.77;1682180;84;20513;-89
2021/08/09 10:02:40;;;;;;;;;;;;;;;23.63;56.62;100474.75;1679911;84;22010;-89
2021/08/09 10:05:06;;;;;;;;;;;;;;;23.41;55.14;100477.72;1680899;84;20204;-88
2021/08/09 10:07:36;;;;;;;;;;;;;;;23.45;55.34;100470.82;1679841;84;20244;-89
2021/08/09 10:10:03;;;;;;;;;;;;;;;23.43;55.14;100492.62;1681868;84;20210;-90
2021/08/09 10:12:30;;;;;;;;;;;;;;;23.43;54.38;100483.19;1681297;84;21097;-89
2021/08/09 10:14:56;;;;;;;;;;;;;;;23.69;55.24;100492.38;1679009;84;39110;-88
2021/08/09 10:17:24;;;;;;;;;;;;;;;23.54;55.41;100489.63;1679319;83;20237;-89
2021/08/09 10:19:52;;;;;;;;;;;;;;;23.60;54.23;100490.05;1621763;88;20191;-89
2021/08/09 10:22:20;;;;;;;;;;;;;;;23.60;54.17;100490.05;1600295;88;20184;-90
2021/08/09 10:24:46;;;;;;;;;;;;;;;23.66;54.67;100479.67;1633339;85;20489;-88
2021/08/09 10:27:11;;;;;;;;;;;;;;;23.77;54.20;100485.28;1637783;87;21031;-89
2021/08/09 10:29:57;;;;;;;;;;;;;;;23.78;53.57;100477.49;1639153;85;20488;-88
2021/08/09 10:32:24;;;;;;;;;;;;;;;23.98;53.72;100477.95;1625533;87;20178;-89
2021/08/09 10:34:49;;;;;;;;;;;;;;;23.93;53.59;100494.58;1638639;86;20558;-89
2021/08/09 10:37:19;;;;;;;;;;;;;;;23.91;53.76;100487.23;1635412;86;20156;-89
2021/08/09 10:40:02;;;;;;;;;;;;;;;24.05;53.92;100483.76;1637636;85;21133;-90
2021/08/09 10:42:34;;;;;;;;;;;;;;;24.26;53.34;100485.82;1639148;85;21088;-90
2021/08/09 10:45:01;;;;;;;;;;;;;;;24.16;51.64;100496.39;1640481;87;20206;-90
2021/08/09 10:47:50;;;;;;;;;;;;;;;24.07;51.06;100492.45;1639675;86;20213;-90
2021/08/09 10:50:28;;;;;;;;;;;;;;;23.95;52.01;100494.62;1641469;86;20186;-89
2021/08/09 10:52:55;;;;;;;;;;;;;;;23.92;52.72;100489.70;1637828;87;21134;-90
2021/08/09 10:55:34;;;;;;;;;;;;;;;24.12;53.25;100488.50;1638333;87;20151;-90
2021/08/09 10:58:00;;;;;;;;;;;;;;;24.16;51.52;100491.84;1638241;86;20202;-89
2021/08/09 11:00:42;;;;;;;;;;;;;;;24.24;50.90;100490.64;1638532;87;20186;-89
2021/08/09 11:03:12;;;;;;;;;;;;;;;24.26;50.75;100485.82;1635011;87;20251;-90
2021/08/09 11:05:37;;;;;;;;;;;;;;;24.25;51.70;100494.97;1638489;86;21080;-90
2021/08/09 11:08:21;;;;;;;;;;;;;;;24.30;51.67;100493.74;1639976;87;20507;-89
2021/08/09 11:10:58;;;;;;;;;;;;;;;24.45;52.24;100491.86;1636450;87;20460;-90
2021/08/09 11:13:25;;;;;;;;;;;;;;;24.40;51.37;100497.70;1639251;85;20660;-90
2021/08/09 11:16:01;;;;;;;;;;;;;;;24.57;51.28;100500.47;1638168;87;20520;-89
2021/08/09 11:18:28;;;;;;;;;;;;;;;24.60;50.31;100491.37;1635177;87;21314;-89
2021/08/09 11:21:08;;;;;;;;;;;;;;;24.50;49.62;100492.48;1637940;87;20134;-89
2021/08/09 11:23:40;;;;;;;;;;;;;;;24.43;49.47;100501.28;1635983;87;20139;-90
2021/08/09 11:26:05;;;;;;;;;;;;;;;24.30;49.90;100502.34;1634052;87;20194;-92
2021/08/09 11:28:31;;;;;;;;;;;;;;;24.41;49.88;100485.83;1633243;87;20178;-89
2021/08/09 11:31:02;;;;;;;;;;;;;;;24.42;50.39;100490.18;1638707;86;21708;-90
2021/08/09 11:33:31;;;;;;;;;;;;;;;24.47;49.37;100488.41;1634239;87;20559;-90
2021/08/09 11:36:08;;;;;;;;;;;;;;;24.52;49.58;100494.44;1639731;87;20187;-90
2021/08/09 11:38:43;;;;;;;;;;;;;;;24.74;49.32;100494.61;1610968;87;21036;-89
2021/08/09 11:41:12;;;;;;;;;;;;;;;24.65;48.82;100502.27;1632433;86;20201;-91
2021/08/09 11:43:37;;;;;;;;;;;;;;;24.70;47.94;100493.44;1634021;86;21195;-90
2021/08/09 11:46:08;;;;;;;;;;;;;;;24.80;48.02;100509.04;1637634;86;20270;-90
2021/08/09 11:48:35;;;;;;;;;;;;;;;24.69;47.52;100507.48;1638883;86;20215;-90
2021/08/09 11:51:04;;;;;;;;;;;;;;;24.87;46.80;100508.34;1635736;86;20160;-90
2021/08/09 11:53:30;;;;;;;;;;;;;;;24.84;46.03;100510.17;1636054;87;20143;-90
2021/08/09 11:56:11;;;;;;;;;;;;;;;24.87;46.49;100502.94;1634862;87;21873;-91
2021/08/09 11:58:37;;;;;;;;;;;;;;;24.96;46.80;100512.83;1633710;86;20124;-90
2021/08/09 12:01:03;;;;;;;;;;;;;;;25.00;47.34;100518.02;1628122;86;20218;-91
2021/08/09 12:03:29;;;;;;;;;;;;;;;24.99;48.20;100502.34;1631998;87;20512;-90
2021/08/09 12:05:56;;;;;;;;;;;;;;;24.88;48.11;100516.74;1605657;86;20243;-91
2021/08/09 12:08:23;;;;;;;;;;;;;;;24.81;48.07;100513.36;1631714;87;21141;-90
2021/08/09 12:10:49;;;;;;;;;;;;;;;24.84;48.09;100500.17;1634971;86;20231;-89
2021/08/09 12:13:23;;;;;;;;;;;;;;;24.87;47.87;100509.69;1632994;87;20147;-90
2021/08/09 12:16:06;;;;;;;;;;;;;;;24.93;46.48;100497.91;1633714;86;20215;-89
2021/08/09 12:18:31;;;;;;;;;;;;;;;25.05;47.20;100509.48;1633282;87;20211;-90
2021/08/09 12:21:09;;;;;;;;;;;;;;;25.04;47.01;100506.48;1631458;87;21127;-90
2021/08/09 12:23:34;;;;;;;;;;;;;;;25.11;47.70;100502.80;1634115;86;20211;-89
2021/08/09 12:26:07;;;;;;;;;;;;;;;25.15;47.46;100510.72;1588458;87;20170;-89
2021/08/09 12:28:32;;;;;;;;;;;;;;;25.17;46.07;100500.47;1633104;87;20211;-90
2021/08/09 12:30:58;;;;;;;;;;;;;;;25.38;46.21;100502.48;1603730;87;20211;-90
2021/08/09 12:33:23;;;;;;;;;;;;;;;25.49;45.98;100512.92;1607169;87;21998;-89
2021/08/09 12:35:49;;;;;;;;;;;;;;;25.54;45.90;100510.83;1632851;86;20158;-91
2021/08/09 12:38:15;;;;;;;;;;;;;;;25.27;44.75;100525.79;1634820;86;20611;-90